createdAt,value
2022-09-13T00:00:41.109Z,98826.19
2022-09-13T00:05:03.100Z,98848.81
2022-09-13T00:09:24.817Z,98849.72
2022-09-13T00:13:47.249Z,98851.47
2022-09-13T00:18:09.165Z,98855.13
2022-09-13T00:22:31.018Z,98841.13
2022-09-13T00:26:53.049Z,98835.97
2022-09-13T00:31:15.207Z,98846.56
2022-09-13T00:35:43.473Z,98848.31
2022-09-13T00:40:12.402Z,98852.81
2022-09-13T00:44:59.017Z,98867.66
2022-09-13T00:49:34.395Z,98880.66
2022-09-13T00:53:59.556Z,98872.94
2022-09-13T00:58:28.478Z,98870.44
2022-09-13T01:02:55.539Z,98861.03
2022-09-13T01:07:24.477Z,98870.53
2022-09-13T01:11:55.637Z,98854.06
2022-09-13T01:16:18.384Z,98858.44
2022-09-13T01:20:48.073Z,98862.88
2022-09-13T01:25:39.764Z,98862.03
2022-09-13T01:30:09.341Z,98855.06
2022-09-13T01:34:46.355Z,98866.38
2022-09-13T01:39:13.133Z,98863.72
2022-09-13T01:44:12.638Z,98868.94
2022-09-13T01:48:37.225Z,98857.63
2022-09-13T01:53:12.531Z,98852.31
2022-09-13T01:57:43.265Z,98851.59
2022-09-13T02:02:18.390Z,98848.09
2022-09-13T02:06:50.537Z,98836.75
2022-09-13T02:11:25.433Z,98834.00
2022-09-13T02:15:51.869Z,98836.66
2022-09-13T02:20:28.543Z,98833.94
2022-09-13T02:24:55.738Z,98841.72
2022-09-13T02:29:22.337Z,98834.69
2022-09-13T02:33:49.507Z,98845.00
2022-09-13T02:38:17.992Z,98837.97
2022-09-13T02:42:48.873Z,98831.00
2022-09-13T02:47:31.585Z,98821.53
2022-09-13T02:52:04.673Z,98811.19
2022-09-13T02:56:34.437Z,98808.88
2022-09-13T03:00:56.325Z,98801.25
2022-09-13T03:05:18.158Z,98795.09
2022-09-13T03:09:46.509Z,98783.81
2022-09-13T03:14:28.662Z,98786.34
2022-09-13T03:19:09.514Z,98803.84
2022-09-13T03:24:02.223Z,98792.50
2022-09-13T03:28:34.572Z,98781.00
2022-09-13T03:33:11.012Z,98776.53
2022-09-13T03:37:32.703Z,98772.16
2022-09-13T03:42:00.600Z,98777.22
2022-09-13T03:46:31.067Z,98788.66
2022-09-13T03:50:52.949Z,98793.91
2022-09-13T03:55:21.645Z,98793.00
2022-09-13T03:59:59.937Z,98793.16
2022-09-13T04:04:24.416Z,98805.31
2022-09-13T04:09:15.145Z,98810.47
2022-09-13T04:13:43.972Z,98815.69
2022-09-13T04:18:12.310Z,98816.53
2022-09-13T04:22:53.704Z,98811.38
2022-09-13T04:27:20.912Z,98810.47
2022-09-13T04:36:30.231Z,98840.75
2022-09-13T04:41:11.791Z,98839.13
2022-09-13T04:45:33.581Z,98837.25
2022-09-13T04:49:55.613Z,98830.22
2022-09-13T04:54:18.304Z,98817.97
2022-09-13T04:58:42.028Z,98798.00
2022-09-13T05:03:03.782Z,98785.09
2022-09-13T05:07:25.546Z,98772.06
2022-09-13T05:11:47.242Z,98775.38
2022-09-13T05:16:10.209Z,98778.59
2022-09-13T05:20:32.069Z,98808.13
2022-09-13T05:24:53.951Z,98808.06
2022-09-13T05:29:15.705Z,98796.66
2022-09-13T05:33:50.437Z,98805.09
2022-09-13T05:58:24.174Z,98818.06
2022-09-13T06:08:42.615Z,98815.06
2022-09-13T06:13:45.046Z,98810.41
2022-09-13T06:18:09.601Z,98814.44
2022-09-13T06:23:06.729Z,98788.59
2022-09-13T06:27:31.620Z,98759.19
2022-09-13T06:31:53.316Z,98747.13
2022-09-13T06:36:20.161Z,98752.78
2022-09-13T06:40:42.667Z,98754.19
2022-09-13T06:45:05.299Z,98755.84
2022-09-13T06:49:29.153Z,98760.34
2022-09-13T06:53:52.158Z,98766.66
2022-09-13T06:58:14.339Z,98760.34
2022-09-13T07:02:42.634Z,98765.84
2022-09-13T07:07:04.497Z,98749.56
2022-09-13T07:11:30.710Z,98749.63
2022-09-13T07:15:52.723Z,98743.94
2022-09-13T07:20:15.066Z,98748.69
2022-09-13T07:24:43.770Z,98745.19
2022-09-13T07:29:08.339Z,98752.56
2022-09-13T07:33:30.054Z,98756.88
2022-09-13T07:37:51.902Z,98761.00
2022-09-13T07:42:19.630Z,98777.69
2022-09-13T07:46:49.734Z,98791.34
2022-09-13T07:51:14.326Z,98797.84
2022-09-13T07:55:42.703Z,98801.56
2022-09-13T08:00:11.629Z,98805.22
2022-09-13T08:04:36.326Z,98800.13
2022-09-13T08:09:05.593Z,98815.66
2022-09-13T08:13:28.737Z,98835.88
2022-09-13T08:17:50.610Z,98838.22
2022-09-13T08:22:12.382Z,98826.31
2022-09-13T08:27:03.274Z,98823.91
2022-09-13T08:36:08.671Z,98819.19
2022-09-13T08:40:55.726Z,98831.84
2022-09-13T08:45:17.706Z,98853.31
2022-09-13T08:49:55.245Z,98844.47
2022-09-13T08:54:46.049Z,98829.81
2022-09-13T09:14:36.019Z,98853.91
2022-09-13T09:19:23.670Z,98869.38
2022-09-13T09:24:19.528Z,98854.00
2022-09-13T09:34:39.287Z,98824.00
2022-09-13T09:49:48.794Z,98827.53
2022-09-13T09:54:17.782Z,98830.94
2022-09-13T10:03:44.955Z,98824.47
2022-09-13T10:08:30.133Z,98823.00
2022-09-13T10:13:14.740Z,98820.63
2022-09-13T10:18:21.154Z,98805.56
2022-09-13T10:23:30.990Z,98796.41
2022-09-13T10:28:04.301Z,98797.91
2022-09-13T10:32:52.111Z,98792.22
2022-09-13T10:42:09.653Z,98775.13
2022-09-13T10:47:02.373Z,98768.78
2022-09-13T10:51:50.101Z,98763.91
2022-09-13T10:56:41.092Z,98763.59
2022-09-13T11:16:59.851Z,98728.44
2022-09-13T12:07:34.747Z,98679.75
2022-09-13T12:12:22.495Z,98663.97
2022-09-13T12:17:12.110Z,98675.09
2022-09-13T12:21:41.795Z,98661.38
2022-09-13T12:26:27.750Z,98667.31
2022-09-13T12:30:59.794Z,98661.56
2022-09-13T12:35:26.137Z,98653.25
2022-09-13T12:40:18.684Z,98648.19
2022-09-13T12:44:49.166Z,98649.75
2022-09-13T12:49:33.091Z,98642.41
2022-09-13T12:54:49.214Z,98637.75
2022-09-13T12:59:30.987Z,98626.66
2022-09-13T13:04:01.210Z,98623.69
2022-09-13T13:08:29.861Z,98619.19
2022-09-13T13:12:55.654Z,98615.53
2022-09-13T13:22:55.180Z,98592.16
2022-09-13T13:27:36.493Z,98590.97
2022-09-13T13:32:12.286Z,98586.69
2022-09-13T13:41:36.757Z,98550.06
2022-09-13T13:46:38.537Z,98548.03
2022-09-13T13:51:19.066Z,98547.53
2022-09-13T13:55:50.174Z,98545.16
2022-09-13T14:00:17.430Z,98544.50
2022-09-13T14:04:47.706Z,98530.59
2022-09-13T14:09:18.406Z,98528.19
2022-09-13T14:13:59.498Z,98521.59
2022-09-13T14:18:46.238Z,98512.00
2022-09-13T14:23:23.108Z,98508.34
2022-09-13T14:27:45.880Z,98515.09
2022-09-13T14:32:16.107Z,98506.66
2022-09-13T14:36:37.845Z,98506.19
2022-09-13T14:41:13.819Z,98502.41
2022-09-13T14:45:38.416Z,98503.81
2022-09-13T14:50:19.564Z,98498.59
2022-09-13T14:54:50.995Z,98493.25
2022-09-13T14:59:40.957Z,98503.13
2022-09-13T15:04:05.592Z,98503.34
2022-09-13T15:08:47.002Z,98498.25
2022-09-13T15:13:10.531Z,98488.41
2022-09-13T15:17:51.366Z,98475.16
2022-09-13T15:22:18.331Z,98473.88
2022-09-13T15:26:46.917Z,98471.97
2022-09-13T15:31:08.785Z,98468.81
2022-09-13T15:35:35.897Z,98472.81
2022-09-13T15:40:14.620Z,98468.75
2022-09-13T15:44:40.699Z,98469.25
2022-09-13T15:49:10.300Z,98467.34
2022-09-13T15:53:31.957Z,98465.94
2022-09-13T15:57:55.009Z,98463.16
2022-09-13T16:02:28.517Z,98456.81
2022-09-13T16:06:50.409Z,98459.97
2022-09-13T16:11:12.084Z,98464.47
2022-09-13T16:15:33.793Z,98464.28
2022-09-13T16:19:56.205Z,98452.84
2022-09-13T16:24:17.890Z,98452.34
2022-09-13T16:28:39.592Z,98447.94
2022-09-13T16:33:02.031Z,98458.44
2022-09-13T16:37:29.941Z,98458.47
2022-09-13T16:41:51.620Z,98451.91
2022-09-13T16:46:19.099Z,98444.22
2022-09-13T16:55:56.122Z,98464.88
2022-09-13T17:00:33.718Z,98463.09
2022-09-13T17:05:02.462Z,98463.38
2022-09-13T17:09:52.224Z,98453.66
2022-09-13T17:14:21.820Z,98448.06
2022-09-13T17:18:48.932Z,98424.56
2022-09-13T17:23:15.342Z,98430.50
2022-09-13T17:27:44.633Z,98431.88
2022-09-13T17:36:53.809Z,98442.34
2022-09-13T17:41:31.798Z,98437.63
2022-09-13T17:46:14.468Z,98449.16
2022-09-13T17:50:39.393Z,98451.25
2022-09-13T17:55:34.574Z,98454.97
2022-09-13T18:00:04.538Z,98453.38
2022-09-13T18:04:33.021Z,98456.75
2022-09-13T18:09:05.803Z,98465.69
2022-09-13T18:13:54.936Z,98462.72
2022-09-13T18:18:27.117Z,98461.88
2022-09-13T18:22:57.795Z,98461.69
2022-09-13T18:27:25.543Z,98470.25
2022-09-13T18:31:47.310Z,98470.81
2022-09-13T18:36:14.961Z,98458.03
2022-09-13T18:40:46.955Z,98468.88
2022-09-13T18:45:13.133Z,98479.19
2022-09-13T18:49:35.222Z,98486.75
2022-09-13T18:54:05.517Z,98488.75
2022-09-13T18:58:33.001Z,98491.78
2022-09-13T19:03:11.780Z,98496.66
2022-09-13T19:07:36.018Z,98491.97
2022-09-13T19:12:04.511Z,98484.31
2022-09-13T19:16:53.465Z,98492.41
2022-09-13T19:21:21.999Z,98486.56
2022-09-13T19:25:44.314Z,98482.13
2022-09-13T19:30:08.116Z,98474.13
2022-09-13T19:34:29.813Z,98465.56
2022-09-13T19:38:53.565Z,98467.25
2022-09-13T19:43:15.368Z,98473.25
2022-09-13T19:48:27.752Z,98483.69
2022-09-13T19:52:26.235Z,98474.84
2022-09-13T19:56:48.034Z,98468.25
2022-09-13T20:01:22.475Z,98457.56
2022-09-13T20:05:44.266Z,98455.78
2022-09-13T20:10:06.541Z,98462.09
2022-09-13T20:14:28.500Z,98445.56
2022-09-13T20:18:57.314Z,98451.16
2022-09-13T20:23:19.206Z,98448.00
2022-09-13T20:27:41.455Z,98443.84
2022-09-13T20:32:03.651Z,98438.69
2022-09-13T20:36:33.358Z,98430.00
2022-09-13T20:40:55.078Z,98419.50
2022-09-13T20:45:30.449Z,98423.31
2022-09-13T20:49:59.188Z,98421.06
2022-09-13T20:54:21.017Z,98418.72
2022-09-13T20:58:44.422Z,98404.69
2022-09-13T21:02:46.579Z,98405.53
2022-09-13T21:07:09.824Z,98387.22
2022-09-13T21:11:25.071Z,98390.25
2022-09-13T21:15:33.337Z,98396.69
2022-09-13T21:19:42.719Z,98395.09
2022-09-13T21:23:44.699Z,98391.72
2022-09-13T21:27:46.627Z,98391.72
2022-09-13T21:31:49.699Z,98376.03
2022-09-13T21:35:52.539Z,98366.41
2022-09-13T21:39:53.912Z,98359.34
2022-09-13T21:44:02.259Z,98360.13
2022-09-13T21:48:04.052Z,98347.84
2022-09-13T21:52:05.542Z,98332.94
2022-09-13T21:56:10.138Z,98331.16
2022-09-13T22:00:20.192Z,98311.91
2022-09-13T22:04:24.256Z,98310.22
2022-09-13T22:08:25.698Z,98320.03
2022-09-13T22:12:27.406Z,98330.59
2022-09-13T22:16:31.607Z,98324.56
2022-09-13T22:20:36.020Z,98383.03
2022-09-13T22:24:44.151Z,98440.19
2022-09-13T22:28:48.338Z,98474.69
2022-09-13T22:32:49.849Z,98504.84
2022-09-13T22:36:54.431Z,98535.94
2022-09-13T22:41:01.327Z,98533.00
2022-09-13T22:45:02.974Z,98540.66
2022-09-13T22:49:05.550Z,98518.66
2022-09-13T22:53:13.205Z,98489.94
2022-09-13T22:57:14.587Z,98437.91
2022-09-13T23:01:18.788Z,98424.38
2022-09-13T23:05:20.164Z,98423.81
2022-09-13T23:09:21.574Z,98430.31
2022-09-13T23:13:23.306Z,98411.22
2022-09-13T23:17:24.681Z,98377.44
2022-09-13T23:21:29.521Z,98393.53
2022-09-13T23:25:32.548Z,98394.81
2022-09-13T23:29:33.892Z,98397.06
2022-09-13T23:33:38.741Z,98381.50
2022-09-13T23:37:46.557Z,98378.19
2022-09-13T23:41:49.373Z,98366.06
2022-09-13T23:45:51.322Z,98353.94
2022-09-13T23:49:52.701Z,98345.28
2022-09-13T23:54:07.341Z,98346.13
2022-09-13T23:58:08.705Z,98335.94
